sensor_id;sensor_type;location;lat;lon;timestamp;temperature;humidity
37032;DHT22;22940;52.266;10.536;2023-04-24T06:57:02;13.80;1.00
37032;DHT22;22940;52.266;10.536;2023-04-24T06:59:28;13.90;1.00
37032;DHT22;22940;52.266;10.536;2023-04-24T07:01:54;13.90;1.00
37032;DHT22;22940;52.266;10.536;2023-04-24T07:04:19;14.00;1.00
37032;DHT22;22940;52.266;10.536;2023-04-24T07:06:45;14.50;1.00
37032;DHT22;22940;52.266;10.536;2023-04-24T07:09:14;15.20;1.00
37032;DHT22;22940;52.266;10.536;2023-04-24T07:11:41;15.60;1.00
37032;DHT22;22940;52.266;10.536;2023-04-24T07:14:07;15.90;1.00
37032;DHT22;22940;52.266;10.536;2023-04-24T07:16:32;16.60;1.00
37032;DHT22;22940;52.266;10.536;2023-04-24T07:18:58;17.50;1.00
37032;DHT22;22940;52.266;10.536;2023-04-24T07:21:23;17.70;1.00
37032;DHT22;22940;52.266;10.536;2023-04-24T07:23:49;17.80;1.00
37032;DHT22;22940;52.266;10.536;2023-04-24T07:26:15;17.30;1.00
37032;DHT22;22940;52.266;10.536;2023-04-24T07:28:40;16.30;1.00
37032;DHT22;22940;52.266;10.536;2023-04-24T07:31:06;15.90;1.00
37032;DHT22;22940;52.266;10.536;2023-04-24T07:33:32;15.40;1.00
37032;DHT22;22940;52.266;10.536;2023-04-24T07:35:58;14.80;1.00
37032;DHT22;22940;52.266;10.536;2023-04-24T07:38:23;14.30;1.00
37032;DHT22;22940;52.266;10.536;2023-04-24T07:40:51;13.80;1.00
37032;DHT22;22940;52.266;10.536;2023-04-24T07:43:19;13.60;1.00
37032;DHT22;22940;52.266;10.536;2023-04-24T07:45:45;13.40;1.00
37032;DHT22;22940;52.266;10.536;2023-04-24T07:48:10;13.50;1.00
37032;DHT22;22940;52.266;10.536;2023-04-24T07:50:36;13.10;1.00
37032;DHT22;22940;52.266;10.536;2023-04-24T07:53:02;13.00;1.00
37032;DHT22;22940;52.266;10.536;2023-04-24T07:55:27;12.90;1.00
37032;DHT22;22940;52.266;10.536;2023-04-24T07:57:53;12.80;1.00
37032;DHT22;22940;52.266;10.536;2023-04-24T08:00:19;12.60;1.00
37032;DHT22;22940;52.266;10.536;2023-04-24T08:02:45;12.60;1.00
37032;DHT22;22940;52.266;10.536;2023-04-24T08:05:10;12.70;1.00
37032;DHT22;22940;52.266;10.536;2023-04-24T08:07:36;12.70;1.00
37032;DHT22;22940;52.266;10.536;2023-04-24T08:10:02;12.50;1.00
37032;DHT22;22940;52.266;10.536;2023-04-24T08:12:28;12.50;1.00
37032;DHT22;22940;52.266;10.536;2023-04-24T08:14:53;12.70;1.00
37032;DHT22;22940;52.266;10.536;2023-04-24T08:17:19;12.90;1.00
37032;DHT22;22940;52.266;10.536;2023-04-24T08:19:44;13.10;1.00
37032;DHT22;22940;52.266;10.536;2023-04-24T08:22:14;13.20;1.00
37032;DHT22;22940;52.266;10.536;2023-04-24T08:24:39;13.10;1.00
37032;DHT22;22940;52.266;10.536;2023-04-24T08:27:05;13.10;1.00
37032;DHT22;22940;52.266;10.536;2023-04-24T08:29:30;13.10;1.00
37032;DHT22;22940;52.266;10.536;2023-04-24T08:31:56;13.20;1.00
37032;DHT22;22940;52.266;10.536;2023-04-24T08:34:22;13.40;1.00
37032;DHT22;22940;52.266;10.536;2023-04-24T08:36:47;13.40;1.00
37032;DHT22;22940;52.266;10.536;2023-04-24T08:39:13;13.70;1.00
37032;DHT22;22940;52.266;10.536;2023-04-24T08:41:40;13.80;1.00
37032;DHT22;22940;52.266;10.536;2023-04-24T08:44:08;14.30;1.00
37032;DHT22;22940;52.266;10.536;2023-04-24T08:46:34;15.10;1.00
37032;DHT22;22940;52.266;10.536;2023-04-24T08:49:01;15.20;1.00
37032;DHT22;22940;52.266;10.536;2023-04-24T08:51:27;15.70;1.00
37032;DHT22;22940;52.266;10.536;2023-04-24T08:53:53;16.10;1.00
37032;DHT22;22940;52.266;10.536;2023-04-24T08:56:19;16.50;1.00
37032;DHT22;22940;52.266;10.536;2023-04-24T08:58:45;16.60;1.00
37032;DHT22;22940;52.266;10.536;2023-04-24T09:01:10;16.30;1.00
37032;DHT22;22940;52.266;10.536;2023-04-24T09:03:36;15.90;1.00
37032;DHT22;22940;52.266;10.536;2023-04-24T09:06:02;15.60;1.00
37032;DHT22;22940;52.266;10.536;2023-04-24T09:08:28;15.60;1.00
37032;DHT22;22940;52.266;10.536;2023-04-24T09:10:53;15.60;1.00
37032;DHT22;22940;52.266;10.536;2023-04-24T09:13:19;15.70;1.00
37032;DHT22;22940;52.266;10.536;2023-04-24T09:15:45;15.80;1.00
37032;DHT22;22940;52.266;10.536;2023-04-24T09:18:11;16.30;1.00
37032;DHT22;22940;52.266;10.536;2023-04-24T09:23:21;16.20;1.00
37032;DHT22;22940;52.266;10.536;2023-04-24T09:25:46;15.90;1.00
37032;DHT22;22940;52.266;10.536;2023-04-24T09:28:19;15.90;1.00
37032;DHT22;22940;52.266;10.536;2023-04-24T09:30:44;16.40;1.00
37032;DHT22;22940;52.266;10.536;2023-04-24T09:33:10;17.00;1.00
37032;DHT22;22940;52.266;10.536;2023-04-24T09:35:36;17.50;1.00
37032;DHT22;22940;52.266;10.536;2023-04-24T09:38:01;17.20;1.00
37032;DHT22;22940;52.266;10.536;2023-04-24T09:40:27;17.00;1.00
37032;DHT22;22940;52.266;10.536;2023-04-24T09:42:53;16.20;1.00
37032;DHT22;22940;52.266;10.536;2023-04-24T09:45:19;16.20;1.00
37032;DHT22;22940;52.266;10.536;2023-04-24T09:47:45;15.90;1.00
37032;DHT22;22940;52.266;10.536;2023-04-24T09:50:15;15.60;1.00
37032;DHT22;22940;52.266;10.536;2023-04-24T09:52:45;15.50;1.00
37032;DHT22;22940;52.266;10.536;2023-04-24T09:55:11;15.50;1.00
37032;DHT22;22940;52.266;10.536;2023-04-24T09:57:46;15.50;1.00
37032;DHT22;22940;52.266;10.536;2023-04-24T10:00:12;15.50;1.00
37032;DHT22;22940;52.266;10.536;2023-04-24T10:02:38;15.50;1.00
37032;DHT22;22940;52.266;10.536;2023-04-24T10:05:03;15.80;1.00
37032;DHT22;22940;52.266;10.536;2023-04-24T10:07:29;15.90;1.00
37032;DHT22;22940;52.266;10.536;2023-04-24T10:09:57;15.90;1.00
37032;DHT22;22940;52.266;10.536;2023-04-24T10:12:23;15.10;1.00
37032;DHT22;22940;52.266;10.536;2023-04-24T10:14:50;14.90;1.00
37032;DHT22;22940;52.266;10.536;2023-04-24T10:17:15;14.90;1.00
37032;DHT22;22940;52.266;10.536;2023-04-24T10:19:41;15.30;1.00
37032;DHT22;22940;52.266;10.536;2023-04-24T10:22:07;15.50;1.00
37032;DHT22;22940;52.266;10.536;2023-04-24T10:24:33;15.50;1.00
37032;DHT22;22940;52.266;10.536;2023-04-24T10:26:59;15.30;1.00
37032;DHT22;22940;52.266;10.536;2023-04-24T10:29:26;15.20;1.00
37032;DHT22;22940;52.266;10.536;2023-04-24T10:31:52;15.20;1.00
37032;DHT22;22940;52.266;10.536;2023-04-24T10:34:18;15.00;1.00
37032;DHT22;22940;52.266;10.536;2023-04-24T10:36:47;15.00;1.00
37032;DHT22;22940;52.266;10.536;2023-04-24T10:39:13;15.10;1.00
37032;DHT22;22940;52.266;10.536;2023-04-24T10:41:43;15.20;1.00
37032;DHT22;22940;52.266;10.536;2023-04-24T10:44:09;15.10;1.00
37032;DHT22;22940;52.266;10.536;2023-04-24T10:46:38;15.10;1.00
37032;DHT22;22940;52.266;10.536;2023-04-24T10:49:04;15.20;1.00
37032;DHT22;22940;52.266;10.536;2023-04-24T10:51:48;15.10;1.00
37032;DHT22;22940;52.266;10.536;2023-04-24T10:56:50;14.90;1.00
37032;DHT22;22940;52.266;10.536;2023-04-24T10:59:25;15.00;1.00
37032;DHT22;22940;52.266;10.536;2023-04-24T11:01:54;14.80;1.00
37032;DHT22;22940;52.266;10.536;2023-04-24T11:04:29;14.80;1.00
37032;DHT22;22940;52.266;10.536;2023-04-24T11:06:56;14.90;1.00
37032;DHT22;22940;52.266;10.536;2023-04-24T11:09:22;14.90;1.00
37032;DHT22;22940;52.266;10.536;2023-04-24T11:11:47;15.10;1.00
37032;DHT22;22940;52.266;10.536;2023-04-24T11:14:16;15.60;1.00
37032;DHT22;22940;52.266;10.536;2023-04-24T11:16:45;15.60;1.00
37032;DHT22;22940;52.266;10.536;2023-04-24T11:26:52;15.80;1.00
37032;DHT22;22940;52.266;10.536;2023-04-24T11:29:19;15.60;1.00
37032;DHT22;22940;52.266;10.536;2023-04-24T11:31:45;15.40;1.00
37032;DHT22;22940;52.266;10.536;2023-04-24T11:34:15;15.40;1.00
37032;DHT22;22940;52.266;10.536;2023-04-24T11:36:50;15.30;1.00
37032;DHT22;22940;52.266;10.536;2023-04-24T11:39:16;15.20;1.00
37032;DHT22;22940;52.266;10.536;2023-04-24T11:41:41;15.00;1.00
37032;DHT22;22940;52.266;10.536;2023-04-24T11:44:08;15.10;1.00
37032;DHT22;22940;52.266;10.536;2023-04-24T11:46:34;15.20;1.00
37032;DHT22;22940;52.266;10.536;2023-04-24T11:48:59;15.00;1.00
37032;DHT22;22940;52.266;10.536;2023-04-24T11:51:26;14.90;1.00
37032;DHT22;22940;52.266;10.536;2023-04-24T11:53:52;14.70;1.00
37032;DHT22;22940;52.266;10.536;2023-04-24T11:56:18;14.60;1.00
37032;DHT22;22940;52.266;10.536;2023-04-24T11:58:44;14.60;1.00
37032;DHT22;22940;52.266;10.536;2023-04-24T12:01:10;14.60;1.00
37032;DHT22;22940;52.266;10.536;2023-04-24T12:03:35;14.40;1.00
37032;DHT22;22940;52.266;10.536;2023-04-24T12:06:07;14.30;1.00
37032;DHT22;22940;52.266;10.536;2023-04-24T12:08:33;14.50;1.00
37032;DHT22;22940;52.266;10.536;2023-04-24T12:11:02;14.60;1.00
37032;DHT22;22940;52.266;10.536;2023-04-24T12:13:28;14.80;1.00
37032;DHT22;22940;52.266;10.536;2023-04-24T12:15:53;14.70;1.00
37032;DHT22;22940;52.266;10.536;2023-04-24T12:18:22;14.70;1.00
37032;DHT22;22940;52.266;10.536;2023-04-24T12:20:47;14.70;1.00
37032;DHT22;22940;52.266;10.536;2023-04-24T12:23:13;14.90;1.00
37032;DHT22;22940;52.266;10.536;2023-04-24T12:25:38;14.90;1.00
37032;DHT22;22940;52.266;10.536;2023-04-24T12:30:31;14.80;1.00
37032;DHT22;22940;52.266;10.536;2023-04-24T12:32:57;14.70;1.00
37032;DHT22;22940;52.266;10.536;2023-04-24T12:35:24;14.70;1.00
37032;DHT22;22940;52.266;10.536;2023-04-24T12:37:50;14.50;1.00
37032;DHT22;22940;52.266;10.536;2023-04-24T12:40:16;14.50;1.00
37032;DHT22;22940;52.266;10.536;2023-04-24T12:42:46;14.30;1.00
37032;DHT22;22940;52.266;10.536;2023-04-24T12:45:12;14.10;1.00
37032;DHT22;22940;52.266;10.536;2023-04-24T12:47:38;14.10;1.00
37032;DHT22;22940;52.266;10.536;2023-04-24T12:50:05;14.00;1.00
37032;DHT22;22940;52.266;10.536;2023-04-24T12:52:31;14.20;1.00
37032;DHT22;22940;52.266;10.536;2023-04-24T12:54:57;14.00;1.00
37032;DHT22;22940;52.266;10.536;2023-04-24T12:57:23;14.20;1.00
37032;DHT22;22940;52.266;10.536;2023-04-24T12:59:49;14.30;1.00
37032;DHT22;22940;52.266;10.536;2023-04-24T13:02:16;14.00;1.00
37032;DHT22;22940;52.266;10.536;2023-04-24T13:04:46;14.10;1.00
37032;DHT22;22940;52.266;10.536;2023-04-24T13:07:12;13.80;1.00
37032;DHT22;22940;52.266;10.536;2023-04-24T13:09:39;13.60;1.00
37032;DHT22;22940;52.266;10.536;2023-04-24T13:12:04;13.30;1.00
37032;DHT22;22940;52.266;10.536;2023-04-24T13:14:31;13.10;1.00
37032;DHT22;22940;52.266;10.536;2023-04-24T13:16:56;13.20;1.00
37032;DHT22;22940;52.266;10.536;2023-04-24T13:19:24;13.20;1.00
37032;DHT22;22940;52.266;10.536;2023-04-24T13:21:51;13.40;1.00
37032;DHT22;22940;52.266;10.536;2023-04-24T13:24:16;13.50;1.00
37032;DHT22;22940;52.266;10.536;2023-04-24T13:26:42;13.50;1.00
37032;DHT22;22940;52.266;10.536;2023-04-24T13:29:08;13.50;1.00
37032;DHT22;22940;52.266;10.536;2023-04-24T13:31:33;13.60;1.00
37032;DHT22;22940;52.266;10.536;2023-04-24T13:33:59;13.50;1.00
37032;DHT22;22940;52.266;10.536;2023-04-24T13:36:24;13.60;1.00
37032;DHT22;22940;52.266;10.536;2023-04-24T13:38:50;12.80;1.00
37032;DHT22;22940;52.266;10.536;2023-04-24T13:41:16;13.30;1.00
37032;DHT22;22940;52.266;10.536;2023-04-24T13:43:41;13.20;1.00
37032;DHT22;22940;52.266;10.536;2023-04-24T13:46:08;13.10;1.00
37032;DHT22;22940;52.266;10.536;2023-04-24T13:48:34;13.10;1.00
37032;DHT22;22940;52.266;10.536;2023-04-24T13:53:25;12.70;1.00
37032;DHT22;22940;52.266;10.536;2023-04-24T13:55:51;12.80;1.00
37032;DHT22;22940;52.266;10.536;2023-04-24T13:58:17;12.90;1.00
37032;DHT22;22940;52.266;10.536;2023-04-24T14:03:08;12.60;1.00
37032;DHT22;22940;52.266;10.536;2023-04-24T14:05:34;13.00;1.00
37032;DHT22;22940;52.266;10.536;2023-04-24T14:07:59;13.00;1.00
37032;DHT22;22940;52.266;10.536;2023-04-24T14:12:52;12.90;1.00
37032;DHT22;22940;52.266;10.536;2023-04-24T14:15:18;12.60;1.00
37032;DHT22;22940;52.266;10.536;2023-04-24T14:17:44;12.70;1.00
37032;DHT22;22940;52.266;10.536;2023-04-24T14:20:09;12.60;1.00
37032;DHT22;22940;52.266;10.536;2023-04-24T14:22:35;12.50;1.00
37032;DHT22;22940;52.266;10.536;2023-04-24T14:25:00;12.50;1.00
37032;DHT22;22940;52.266;10.536;2023-04-24T14:27:26;12.20;1.00
37032;DHT22;22940;52.266;10.536;2023-04-24T14:29:52;12.20;1.00
37032;DHT22;22940;52.266;10.536;2023-04-24T14:32:17;12.10;1.00
37032;DHT22;22940;52.266;10.536;2023-04-24T14:34:43;12.00;1.00
37032;DHT22;22940;52.266;10.536;2023-04-24T14:37:11;12.10;1.00
37032;DHT22;22940;52.266;10.536;2023-04-24T14:39:36;12.00;1.00
37032;DHT22;22940;52.266;10.536;2023-04-24T14:42:02;11.80;1.00
37032;DHT22;22940;52.266;10.536;2023-04-24T14:44:27;11.70;1.00
37032;DHT22;22940;52.266;10.536;2023-04-24T14:46:53;11.60;1.00
37032;DHT22;22940;52.266;10.536;2023-04-24T14:56:36;11.80;1.00
37032;DHT22;22940;52.266;10.536;2023-04-24T15:01:29;11.50;1.00
37032;DHT22;22940;52.266;10.536;2023-04-24T15:06:20;11.60;1.00
37032;DHT22;22940;52.266;10.536;2023-04-24T15:08:46;11.50;1.00
37032;DHT22;22940;52.266;10.536;2023-04-24T15:11:11;11.40;1.00
37032;DHT22;22940;52.266;10.536;2023-04-24T15:13:37;11.40;1.00
37032;DHT22;22940;52.266;10.536;2023-04-24T15:16:03;11.40;1.00
37032;DHT22;22940;52.266;10.536;2023-04-24T15:18:28;11.20;1.00
37032;DHT22;22940;52.266;10.536;2023-04-24T15:20:54;11.30;1.00
37032;DHT22;22940;52.266;10.536;2023-04-24T15:23:20;11.10;1.00
37032;DHT22;22940;52.266;10.536;2023-04-24T15:25:46;11.20;1.00
37032;DHT22;22940;52.266;10.536;2023-04-24T15:30:39;11.20;1.00
37032;DHT22;22940;52.266;10.536;2023-04-24T15:33:04;11.20;1.00
37032;DHT22;22940;52.266;10.536;2023-04-24T15:35:30;11.00;1.00
37032;DHT22;22940;52.266;10.536;2023-04-24T15:37:56;11.20;1.00
37032;DHT22;22940;52.266;10.536;2023-04-24T15:40:22;11.10;1.00
37032;DHT22;22940;52.266;10.536;2023-04-24T15:42:47;10.90;1.00
37032;DHT22;22940;52.266;10.536;2023-04-24T15:45:13;10.90;1.00
37032;DHT22;22940;52.266;10.536;2023-04-24T15:47:38;11.00;1.00
37032;DHT22;22940;52.266;10.536;2023-04-24T15:50:05;11.00;1.00
37032;DHT22;22940;52.266;10.536;2023-04-24T15:52:30;10.90;1.00
37032;DHT22;22940;52.266;10.536;2023-04-24T15:54:56;10.80;1.00
37032;DHT22;22940;52.266;10.536;2023-04-24T15:57:23;10.90;1.00
37032;DHT22;22940;52.266;10.536;2023-04-24T15:59:48;10.90;1.00
37032;DHT22;22940;52.266;10.536;2023-04-24T16:02:14;10.80;1.00
37032;DHT22;22940;52.266;10.536;2023-04-24T16:04:46;10.90;1.00
37032;DHT22;22940;52.266;10.536;2023-04-24T16:07:12;10.70;1.00
37032;DHT22;22940;52.266;10.536;2023-04-24T16:09:38;10.60;1.00
37032;DHT22;22940;52.266;10.536;2023-04-24T16:12:04;10.80;1.00
37032;DHT22;22940;52.266;10.536;2023-04-24T16:14:29;10.80;1.00
37032;DHT22;22940;52.266;10.536;2023-04-24T16:16:55;11.00;1.00
37032;DHT22;22940;52.266;10.536;2023-04-24T16:19:20;11.20;1.00
37032;DHT22;22940;52.266;10.536;2023-04-24T16:21:46;11.10;1.00
37032;DHT22;22940;52.266;10.536;2023-04-24T16:24:11;11.10;1.00
37032;DHT22;22940;52.266;10.536;2023-04-24T16:26:37;11.20;1.00
37032;DHT22;22940;52.266;10.536;2023-04-24T16:29:03;11.30;1.00
37032;DHT22;22940;52.266;10.536;2023-04-24T16:31:28;11.50;1.00
37032;DHT22;22940;52.266;10.536;2023-04-24T16:33:54;11.30;1.00
37032;DHT22;22940;52.266;10.536;2023-04-24T16:36:19;11.20;1.00
37032;DHT22;22940;52.266;10.536;2023-04-24T16:38:46;11.30;1.00
37032;DHT22;22940;52.266;10.536;2023-04-24T16:41:13;11.30;1.00
37032;DHT22;22940;52.266;10.536;2023-04-24T16:43:38;11.20;1.00
37032;DHT22;22940;52.266;10.536;2023-04-24T16:46:04;11.30;1.00
37032;DHT22;22940;52.266;10.536;2023-04-24T16:48:31;11.20;1.00
37032;DHT22;22940;52.266;10.536;2023-04-24T16:50:56;11.20;1.00
37032;DHT22;22940;52.266;10.536;2023-04-24T16:53:22;11.30;1.00
37032;DHT22;22940;52.266;10.536;2023-04-24T16:55:47;11.40;1.00
37032;DHT22;22940;52.266;10.536;2023-04-24T16:58:13;11.30;1.00
37032;DHT22;22940;52.266;10.536;2023-04-24T17:00:38;11.30;1.00
37032;DHT22;22940;52.266;10.536;2023-04-24T17:03:04;11.30;1.00
37032;DHT22;22940;52.266;10.536;2023-04-24T17:05:30;11.10;1.00
37032;DHT22;22940;52.266;10.536;2023-04-24T17:07:56;11.10;1.00
37032;DHT22;22940;52.266;10.536;2023-04-24T17:10:22;11.20;1.00
37032;DHT22;22940;52.266;10.536;2023-04-24T17:12:47;11.20;1.00
37032;DHT22;22940;52.266;10.536;2023-04-24T17:15:13;11.20;1.00
37032;DHT22;22940;52.266;10.536;2023-04-24T17:17:38;11.20;1.00
37032;DHT22;22940;52.266;10.536;2023-04-24T17:20:06;11.00;1.00
37032;DHT22;22940;52.266;10.536;2023-04-24T17:22:32;11.00;1.00
37032;DHT22;22940;52.266;10.536;2023-04-24T17:24:58;10.80;1.00
37032;DHT22;22940;52.266;10.536;2023-04-24T17:27:23;10.90;1.00
37032;DHT22;22940;52.266;10.536;2023-04-24T17:29:49;10.80;1.00
37032;DHT22;22940;52.266;10.536;2023-04-24T17:32:15;10.70;1.00
37032;DHT22;22940;52.266;10.536;2023-04-24T17:34:41;10.80;1.00
37032;DHT22;22940;52.266;10.536;2023-04-24T17:37:06;10.80;1.00
37032;DHT22;22940;52.266;10.536;2023-04-24T17:39:32;10.80;1.00
37032;DHT22;22940;52.266;10.536;2023-04-24T17:41:58;10.80;1.00
37032;DHT22;22940;52.266;10.536;2023-04-24T17:44:23;10.70;1.00
37032;DHT22;22940;52.266;10.536;2023-04-24T17:46:49;10.50;1.00
37032;DHT22;22940;52.266;10.536;2023-04-24T17:49:14;10.60;1.00
37032;DHT22;22940;52.266;10.536;2023-04-24T17:51:40;10.60;1.00
37032;DHT22;22940;52.266;10.536;2023-04-24T17:54:05;10.70;1.00
37032;DHT22;22940;52.266;10.536;2023-04-24T17:56:31;10.80;1.00
37032;DHT22;22940;52.266;10.536;2023-04-24T17:58:56;10.70;1.00
37032;DHT22;22940;52.266;10.536;2023-04-24T18:01:22;10.60;1.00
37032;DHT22;22940;52.266;10.536;2023-04-24T18:03:48;10.60;1.00
37032;DHT22;22940;52.266;10.536;2023-04-24T18:06:13;10.60;1.00
